sensor_id;sensor_type;location;lat;lon;timestamp;pressure;altitude;pressure_sealevel;temperature;humidity
57948;BME280;43754;56.992;24.292;2023-07-02T00:00:57;99946.94;;;17.79;78.58
57948;BME280;43754;56.992;24.292;2023-07-02T00:03:31;99950.63;;;17.73;78.61
57948;BME280;43754;56.992;24.292;2023-07-02T00:06:03;99945.44;;;17.72;79.06
57948;BME280;43754;56.992;24.292;2023-07-02T00:08:35;99942.97;;;17.70;79.02
57948;BME280;43754;56.992;24.292;2023-07-02T00:11:07;99940.53;;;17.69;79.10
57948;BME280;43754;56.992;24.292;2023-07-02T00:13:44;99951.09;;;17.70;79.45
57948;BME280;43754;56.992;24.292;2023-07-02T00:16:16;99950.03;;;17.71;79.95
57948;BME280;43754;56.992;24.292;2023-07-02T00:18:49;99946.19;;;17.67;80.47
57948;BME280;43754;56.992;24.292;2023-07-02T00:21:24;99943.25;;;17.69;81.10
57948;BME280;43754;56.992;24.292;2023-07-02T00:24:00;99941.09;;;17.71;80.84
57948;BME280;43754;56.992;24.292;2023-07-02T00:26:32;99938.66;;;17.69;81.08
57948;BME280;43754;56.992;24.292;2023-07-02T00:29:04;99941.03;;;17.66;81.80
57948;BME280;43754;56.992;24.292;2023-07-02T00:31:38;99933.97;;;17.65;81.50
57948;BME280;43754;56.992;24.292;2023-07-02T00:34:11;99930.91;;;17.61;82.30
57948;BME280;43754;56.992;24.292;2023-07-02T00:36:45;99932.81;;;17.61;82.06
57948;BME280;43754;56.992;24.292;2023-07-02T00:39:17;99931.72;;;17.62;82.11
57948;BME280;43754;56.992;24.292;2023-07-02T00:41:49;99924.41;;;17.62;82.43
57948;BME280;43754;56.992;24.292;2023-07-02T00:44:21;99925.97;;;17.58;82.24
57948;BME280;43754;56.992;24.292;2023-07-02T00:46:55;99922.19;;;17.59;82.72
57948;BME280;43754;56.992;24.292;2023-07-02T00:49:28;99916.09;;;17.52;83.21
57948;BME280;43754;56.992;24.292;2023-07-02T00:52:00;99915.28;;;17.52;83.50
57948;BME280;43754;56.992;24.292;2023-07-02T00:54:32;99913.94;;;17.54;83.64
57948;BME280;43754;56.992;24.292;2023-07-02T00:57:05;99918.06;;;17.57;83.46
57948;BME280;43754;56.992;24.292;2023-07-02T00:59:38;99915.38;;;17.57;83.24
57948;BME280;43754;56.992;24.292;2023-07-02T01:02:10;99904.66;;;17.50;83.76
57948;BME280;43754;56.992;24.292;2023-07-02T01:04:47;99913.19;;;17.42;84.57
57948;BME280;43754;56.992;24.292;2023-07-02T01:07:22;99912.88;;;17.38;84.44
57948;BME280;43754;56.992;24.292;2023-07-02T01:09:55;99899.31;;;17.38;84.36
57948;BME280;43754;56.992;24.292;2023-07-02T01:12:27;99899.56;;;17.37;84.66
57948;BME280;43754;56.992;24.292;2023-07-02T01:15:02;99898.81;;;17.41;84.24
57948;BME280;43754;56.992;24.292;2023-07-02T01:17:35;99900.25;;;17.44;84.00
57948;BME280;43754;56.992;24.292;2023-07-02T01:20:15;99891.03;;;17.45;84.37
57948;BME280;43754;56.992;24.292;2023-07-02T01:22:48;99886.78;;;17.49;84.95
57948;BME280;43754;56.992;24.292;2023-07-02T01:25:23;99887.59;;;17.49;85.00
57948;BME280;43754;56.992;24.292;2023-07-02T01:27:56;99891.84;;;17.45;85.10
57948;BME280;43754;56.992;24.292;2023-07-02T01:30:30;99878.31;;;17.45;85.15
57948;BME280;43754;56.992;24.292;2023-07-02T01:33:02;99876.44;;;17.46;85.08
57948;BME280;43754;56.992;24.292;2023-07-02T01:35:36;99877.25;;;17.46;84.96
57948;BME280;43754;56.992;24.292;2023-07-02T01:38:08;99880.13;;;17.40;85.56
57948;BME280;43754;56.992;24.292;2023-07-02T01:40:40;99873.22;;;17.32;86.29
57948;BME280;43754;56.992;24.292;2023-07-02T01:43:12;99868.16;;;17.36;86.67
57948;BME280;43754;56.992;24.292;2023-07-02T01:45:45;99869.53;;;17.38;86.69
57948;BME280;43754;56.992;24.292;2023-07-02T01:48:18;99864.09;;;17.38;86.58
57948;BME280;43754;56.992;24.292;2023-07-02T01:50:52;99862.97;;;17.34;86.92
57948;BME280;43754;56.992;24.292;2023-07-02T01:53:24;99859.19;;;17.35;86.92
57948;BME280;43754;56.992;24.292;2023-07-02T01:55:56;99848.34;;;17.35;87.35
57948;BME280;43754;56.992;24.292;2023-07-02T01:58:28;99852.13;;;17.34;87.42
57948;BME280;43754;56.992;24.292;2023-07-02T02:01:00;99856.63;;;17.29;88.36
57948;BME280;43754;56.992;24.292;2023-07-02T02:03:33;99860.06;;;17.24;88.21
57948;BME280;43754;56.992;24.292;2023-07-02T02:06:06;99860.16;;;17.29;88.31
57948;BME280;43754;56.992;24.292;2023-07-02T02:08:38;99854.84;;;17.34;88.53
57948;BME280;43754;56.992;24.292;2023-07-02T02:11:10;99852.13;;;17.34;88.55
57948;BME280;43754;56.992;24.292;2023-07-02T02:13:42;99856.63;;;17.29;88.29
57948;BME280;43754;56.992;24.292;2023-07-02T02:16:14;99851.56;;;17.32;88.50
57948;BME280;43754;56.992;24.292;2023-07-02T02:18:46;99850.38;;;17.28;89.35
57948;BME280;43754;56.992;24.292;2023-07-02T02:21:20;99854.41;;;17.26;89.59
57948;BME280;43754;56.992;24.292;2023-07-02T02:23:53;99854.19;;;17.27;89.45
57948;BME280;43754;56.992;24.292;2023-07-02T02:26:25;99850.75;;;17.32;89.58
57948;BME280;43754;56.992;24.292;2023-07-02T02:28:57;99852.84;;;17.30;89.94
57948;BME280;43754;56.992;24.292;2023-07-02T02:31:29;99853.69;;;17.30;90.26
57948;BME280;43754;56.992;24.292;2023-07-02T02:34:03;99849.31;;;17.29;90.94
57948;BME280;43754;56.992;24.292;2023-07-02T02:36:37;99848.25;;;17.30;90.67
57948;BME280;43754;56.992;24.292;2023-07-02T02:39:09;99834.50;;;17.32;90.36
57948;BME280;43754;56.992;24.292;2023-07-02T02:41:41;99830.69;;;17.33;90.45
57948;BME280;43754;56.992;24.292;2023-07-02T02:44:14;99841.28;;;17.34;90.63
57948;BME280;43754;56.992;24.292;2023-07-02T02:46:47;99836.69;;;17.35;90.35
57948;BME280;43754;56.992;24.292;2023-07-02T02:49:19;99839.97;;;17.37;90.63
57948;BME280;43754;56.992;24.292;2023-07-02T02:51:52;99845.88;;;17.34;90.89
57948;BME280;43754;56.992;24.292;2023-07-02T02:54:24;99841.19;;;17.29;90.85
57948;BME280;43754;56.992;24.292;2023-07-02T02:56:56;99829.91;;;17.32;90.98
57948;BME280;43754;56.992;24.292;2023-07-02T02:59:29;99829.06;;;17.32;91.14
57948;BME280;43754;56.992;24.292;2023-07-02T03:02:00;99830.03;;;17.26;91.66
57948;BME280;43754;56.992;24.292;2023-07-02T03:04:34;99824.63;;;17.26;91.97
57948;BME280;43754;56.992;24.292;2023-07-02T03:07:07;99822.22;;;17.29;92.39
57948;BME280;43754;56.992;24.292;2023-07-02T03:09:39;99830.13;;;17.31;92.34
57948;BME280;43754;56.992;24.292;2023-07-02T03:12:11;99837.19;;;17.32;92.60
57948;BME280;43754;56.992;24.292;2023-07-02T03:14:43;99837.75;;;17.34;92.56
57948;BME280;43754;56.992;24.292;2023-07-02T03:17:15;99820.94;;;17.32;92.99
57948;BME280;43754;56.992;24.292;2023-07-02T03:19:47;99819.19;;;17.26;93.43
57948;BME280;43754;56.992;24.292;2023-07-02T03:22:21;99819.19;;;17.26;93.62
57948;BME280;43754;56.992;24.292;2023-07-02T03:24:53;99808.69;;;17.29;93.47
57948;BME280;43754;56.992;24.292;2023-07-02T03:27:25;99809.38;;;17.36;93.47
57948;BME280;43754;56.992;24.292;2023-07-02T03:29:57;99802.44;;;17.45;93.94
57948;BME280;43754;56.992;24.292;2023-07-02T03:32:30;99799.09;;;17.55;93.03
57948;BME280;43754;56.992;24.292;2023-07-02T03:35:02;99797.31;;;17.61;93.20
57948;BME280;43754;56.992;24.292;2023-07-02T03:37:36;99789.66;;;17.58;93.98
57948;BME280;43754;56.992;24.292;2023-07-02T03:40:08;99779.78;;;17.52;94.69
57948;BME280;43754;56.992;24.292;2023-07-02T03:42:42;99781.53;;;17.58;94.88
57948;BME280;43754;56.992;24.292;2023-07-02T03:45:15;99787.63;;;17.65;94.84
57948;BME280;43754;56.992;24.292;2023-07-02T03:47:47;99782.44;;;17.63;95.31
57948;BME280;43754;56.992;24.292;2023-07-02T03:50:19;99786.72;;;17.59;95.71
57948;BME280;43754;56.992;24.292;2023-07-02T03:52:53;99777.31;;;17.67;95.52
57948;BME280;43754;56.992;24.292;2023-07-02T03:55:25;99769.59;;;17.75;95.37
57948;BME280;43754;56.992;24.292;2023-07-02T03:57:57;99774.34;;;17.85;95.01
57948;BME280;43754;56.992;24.292;2023-07-02T04:00:29;99773.84;;;17.88;94.50
57948;BME280;43754;56.992;24.292;2023-07-02T04:03:01;99773.72;;;17.78;95.82
57948;BME280;43754;56.992;24.292;2023-07-02T04:05:33;99775.59;;;17.77;96.18
57948;BME280;43754;56.992;24.292;2023-07-02T04:08:07;99767.28;;;17.84;96.07
57948;BME280;43754;56.992;24.292;2023-07-02T04:10:39;99760.09;;;17.73;96.65
57948;BME280;43754;56.992;24.292;2023-07-02T04:13:11;99759.03;;;17.74;97.05
57948;BME280;43754;56.992;24.292;2023-07-02T04:15:43;99762.88;;;17.78;97.21
57948;BME280;43754;56.992;24.292;2023-07-02T04:18:15;99760.09;;;17.73;96.98
57948;BME280;43754;56.992;24.292;2023-07-02T04:20:47;99753.66;;;17.79;96.94
57948;BME280;43754;56.992;24.292;2023-07-02T04:23:21;99747.97;;;17.80;96.79
57948;BME280;43754;56.992;24.292;2023-07-02T04:25:53;99756.25;;;17.90;96.67
57948;BME280;43754;56.992;24.292;2023-07-02T04:28:45;99749.88;;;18.02;96.26
57948;BME280;43754;56.992;24.292;2023-07-02T04:31:17;99749.13;;;18.06;94.94
57948;BME280;43754;56.992;24.292;2023-07-02T04:33:50;99750.25;;;18.10;93.88
57948;BME280;43754;56.992;24.292;2023-07-02T04:36:23;99739.72;;;18.14;93.54
57948;BME280;43754;56.992;24.292;2023-07-02T04:38:56;99738.75;;;18.25;92.98
57948;BME280;43754;56.992;24.292;2023-07-02T04:41:28;99727.97;;;18.30;92.02
57948;BME280;43754;56.992;24.292;2023-07-02T04:44:01;99722.06;;;18.60;89.48
57948;BME280;43754;56.992;24.292;2023-07-02T04:46:33;99722.50;;;19.10;87.63
57948;BME280;43754;56.992;24.292;2023-07-02T04:49:06;99719.03;;;19.52;84.90
57948;BME280;43754;56.992;24.292;2023-07-02T04:51:38;99721.84;;;19.72;82.69
57948;BME280;43754;56.992;24.292;2023-07-02T04:54:12;99713.63;;;19.57;80.86
57948;BME280;43754;56.992;24.292;2023-07-02T04:56:44;99718.19;;;19.51;81.43
57948;BME280;43754;56.992;24.292;2023-07-02T04:59:16;99720.41;;;19.59;80.95
57948;BME280;43754;56.992;24.292;2023-07-02T05:01:48;99706.38;;;20.45;78.27
57948;BME280;43754;56.992;24.292;2023-07-02T05:04:20;99704.22;;;21.28;73.40
57948;BME280;43754;56.992;24.292;2023-07-02T05:06:53;99708.50;;;21.69;69.91
57948;BME280;43754;56.992;24.292;2023-07-02T05:09:26;99702.63;;;22.06;68.78
57948;BME280;43754;56.992;24.292;2023-07-02T05:11:58;99707.00;;;22.07;68.50
57948;BME280;43754;56.992;24.292;2023-07-02T05:14:30;99707.88;;;21.92;68.92
57948;BME280;43754;56.992;24.292;2023-07-02T05:17:03;99694.59;;;21.61;69.87
57948;BME280;43754;56.992;24.292;2023-07-02T05:19:35;99705.31;;;21.32;71.51
57948;BME280;43754;56.992;24.292;2023-07-02T05:22:08;99702.84;;;21.00;72.22
57948;BME280;43754;56.992;24.292;2023-07-02T05:24:41;99705.84;;;20.88;73.27
57948;BME280;43754;56.992;24.292;2023-07-02T05:27:13;99706.13;;;20.61;73.92
57948;BME280;43754;56.992;24.292;2023-07-02T05:29:45;99703.91;;;20.43;74.57
57948;BME280;43754;56.992;24.292;2023-07-02T05:32:17;99703.59;;;20.35;74.89
57948;BME280;43754;56.992;24.292;2023-07-02T05:34:49;99703.34;;;20.31;75.05
57948;BME280;43754;56.992;24.292;2023-07-02T05:37:22;99701.13;;;20.28;75.61
57948;BME280;43754;56.992;24.292;2023-07-02T05:39:56;99700.22;;;20.02;77.27
57948;BME280;43754;56.992;24.292;2023-07-02T05:42:28;99692.56;;;19.89;77.88
57948;BME280;43754;56.992;24.292;2023-07-02T05:45:00;99695.84;;;19.91;77.80
57948;BME280;43754;56.992;24.292;2023-07-02T05:47:32;99691.19;;;19.92;78.30
57948;BME280;43754;56.992;24.292;2023-07-02T05:50:05;99680.81;;;19.73;78.94
57948;BME280;43754;56.992;24.292;2023-07-02T05:52:37;99686.75;;;19.70;79.52
57948;BME280;43754;56.992;24.292;2023-07-02T05:55:11;99684.00;;;19.60;79.99
57948;BME280;43754;56.992;24.292;2023-07-02T05:57:43;99689.13;;;19.52;80.44
57948;BME280;43754;56.992;24.292;2023-07-02T06:00:16;99686.44;;;19.57;80.79
57948;BME280;43754;56.992;24.292;2023-07-02T06:02:48;99674.41;;;19.48;81.04
57948;BME280;43754;56.992;24.292;2023-07-02T06:05:20;99675.44;;;19.37;81.52
57948;BME280;43754;56.992;24.292;2023-07-02T06:07:52;99670.50;;;19.28;82.43
57948;BME280;43754;56.992;24.292;2023-07-02T06:10:26;99673.41;;;19.22;83.12
57948;BME280;43754;56.992;24.292;2023-07-02T06:12:58;99676.97;;;19.22;83.40
57948;BME280;43754;56.992;24.292;2023-07-02T06:15:30;99667.72;;;19.23;83.29
57948;BME280;43754;56.992;24.292;2023-07-02T06:18:02;99659.63;;;19.28;83.17
57948;BME280;43754;56.992;24.292;2023-07-02T06:20:34;99666.59;;;19.14;84.50
57948;BME280;43754;56.992;24.292;2023-07-02T06:23:06;99659.78;;;19.17;84.56
57948;BME280;43754;56.992;24.292;2023-07-02T06:25:39;99668.25;;;19.20;85.22
57948;BME280;43754;56.992;24.292;2023-07-02T06:28:11;99665.84;;;19.29;84.69
57948;BME280;43754;56.992;24.292;2023-07-02T06:30:43;99672.72;;;19.42;84.50
57948;BME280;43754;56.992;24.292;2023-07-02T06:33:16;99664.09;;;19.45;84.80
57948;BME280;43754;56.992;24.292;2023-07-02T06:35:49;99669.22;;;19.41;85.03
57948;BME280;43754;56.992;24.292;2023-07-02T06:38:21;99664.94;;;19.55;84.70
57948;BME280;43754;56.992;24.292;2023-07-02T06:40:54;99672.31;;;19.60;85.44
57948;BME280;43754;56.992;24.292;2023-07-02T06:43:26;99674.22;;;19.64;86.98
57948;BME280;43754;56.992;24.292;2023-07-02T06:45:58;99667.94;;;19.59;87.00
57948;BME280;43754;56.992;24.292;2023-07-02T06:48:30;99664.63;;;19.47;89.65
57948;BME280;43754;56.992;24.292;2023-07-02T06:51:03;99676.56;;;19.46;90.45
57948;BME280;43754;56.992;24.292;2023-07-02T06:53:35;99659.63;;;19.28;90.16
57948;BME280;43754;56.992;24.292;2023-07-02T06:56:09;99656.34;;;19.26;91.84
57948;BME280;43754;56.992;24.292;2023-07-02T06:58:42;99654.19;;;19.28;92.25
57948;BME280;43754;56.992;24.292;2023-07-02T07:01:14;99658.34;;;19.41;90.17
57948;BME280;43754;56.992;24.292;2023-07-02T07:03:46;99649.72;;;19.54;89.63
57948;BME280;43754;56.992;24.292;2023-07-02T07:06:18;99658.97;;;19.58;89.64
57948;BME280;43754;56.992;24.292;2023-07-02T07:08:50;99643.50;;;19.64;88.11
57948;BME280;43754;56.992;24.292;2023-07-02T07:11:24;99642.97;;;19.62;88.28
57948;BME280;43754;56.992;24.292;2023-07-02T07:13:56;99641.59;;;19.59;88.87
57948;BME280;43754;56.992;24.292;2023-07-02T07:16:28;99641.34;;;19.66;88.06
57948;BME280;43754;56.992;24.292;2023-07-02T07:19:00;99639.75;;;19.70;87.46
57948;BME280;43754;56.992;24.292;2023-07-02T07:21:32;99634.59;;;19.73;87.21
57948;BME280;43754;56.992;24.292;2023-07-02T07:24:05;99639.47;;;19.77;86.78
57948;BME280;43754;56.992;24.292;2023-07-02T07:26:38;99644.88;;;19.66;87.04
57948;BME280;43754;56.992;24.292;2023-07-02T07:29:10;99634.28;;;19.75;86.91
57948;BME280;43754;56.992;24.292;2023-07-02T07:31:43;99630.31;;;19.98;86.08
57948;BME280;43754;56.992;24.292;2023-07-02T07:34:15;99624.06;;;20.12;85.27
57948;BME280;43754;56.992;24.292;2023-07-02T07:36:47;99623.84;;;20.24;84.02
57948;BME280;43754;56.992;24.292;2023-07-02T07:39:19;99631.44;;;20.27;84.01
57948;BME280;43754;56.992;24.292;2023-07-02T07:41:53;99622.50;;;20.32;84.60
57948;BME280;43754;56.992;24.292;2023-07-02T07:44:25;99622.47;;;20.27;85.24
57948;BME280;43754;56.992;24.292;2023-07-02T07:47:01;99629.84;;;20.31;84.84
57948;BME280;43754;56.992;24.292;2023-07-02T07:49:33;99627.38;;;20.30;84.42
57948;BME280;43754;56.992;24.292;2023-07-02T07:52:05;99623.28;;;20.27;84.74
57948;BME280;43754;56.992;24.292;2023-07-02T07:54:38;99620.88;;;20.31;85.32
57948;BME280;43754;56.992;24.292;2023-07-02T07:57:12;99617.34;;;20.35;84.60
57948;BME280;43754;56.992;24.292;2023-07-02T07:59:44;99610.28;;;20.44;85.04
57948;BME280;43754;56.992;24.292;2023-07-02T08:02:16;99612.72;;;20.61;84.40
57948;BME280;43754;56.992;24.292;2023-07-02T08:04:48;99614.91;;;20.69;83.01
57948;BME280;43754;56.992;24.292;2023-07-02T08:07:20;99617.06;;;20.72;82.53
57948;BME280;43754;56.992;24.292;2023-07-02T08:09:52;99626.31;;;20.81;83.03
57948;BME280;43754;56.992;24.292;2023-07-02T08:12:26;99618.72;;;20.73;83.37
57948;BME280;43754;56.992;24.292;2023-07-02T08:15:00;99615.16;;;20.62;85.09
57948;BME280;43754;56.992;24.292;2023-07-02T08:17:32;99610.81;;;20.51;87.06
57948;BME280;43754;56.992;24.292;2023-07-02T08:20:05;99611.88;;;20.50;87.96
57948;BME280;43754;56.992;24.292;2023-07-02T08:22:41;99606.72;;;20.64;88.45
57948;BME280;43754;56.992;24.292;2023-07-02T08:25:13;99602.09;;;20.75;86.48
57948;BME280;43754;56.992;24.292;2023-07-02T08:27:46;99603.16;;;20.89;86.17
57948;BME280;43754;56.992;24.292;2023-07-02T08:30:18;99597.41;;;21.05;85.10
57948;BME280;43754;56.992;24.292;2023-07-02T08:32:50;99583.16;;;21.34;82.66
57948;BME280;43754;56.992;24.292;2023-07-02T08:35:22;99575.94;;;21.68;81.22
57948;BME280;43754;56.992;24.292;2023-07-02T08:37:54;99577.22;;;21.86;78.40
57948;BME280;43754;56.992;24.292;2023-07-02T08:40:26;99573.50;;;22.16;77.75
57948;BME280;43754;56.992;24.292;2023-07-02T08:43:01;99567.09;;;22.30;76.06
57948;BME280;43754;56.992;24.292;2023-07-02T08:45:34;99573.31;;;22.41;75.33
57948;BME280;43754;56.992;24.292;2023-07-02T08:48:06;99572.06;;;22.23;74.59
57948;BME280;43754;56.992;24.292;2023-07-02T08:50:38;99566.16;;;22.79;75.18
57948;BME280;43754;56.992;24.292;2023-07-02T08:53:10;99562.94;;;23.48;71.40
57948;BME280;43754;56.992;24.292;2023-07-02T08:55:42;99562.91;;;23.91;68.44
57948;BME280;43754;56.992;24.292;2023-07-02T08:58:16;99554.97;;;23.89;69.48
57948;BME280;43754;56.992;24.292;2023-07-02T09:01:04;99552.25;;;24.08;68.72
57948;BME280;43754;56.992;24.292;2023-07-02T09:03:38;99548.91;;;24.11;68.14
57948;BME280;43754;56.992;24.292;2023-07-02T09:06:11;99550.94;;;24.24;67.89
57948;BME280;43754;56.992;24.292;2023-07-02T09:08:44;99546.84;;;24.21;67.09
57948;BME280;43754;56.992;24.292;2023-07-02T09:11:16;99545.22;;;24.02;66.89
57948;BME280;43754;56.992;24.292;2023-07-02T09:13:53;99542.03;;;23.95;68.82
57948;BME280;43754;56.992;24.292;2023-07-02T09:16:31;99538.06;;;23.87;68.12
57948;BME280;43754;56.992;24.292;2023-07-02T09:19:06;99544.16;;;23.60;69.53
57948;BME280;43754;56.992;24.292;2023-07-02T09:21:42;99543.44;;;23.31;69.57
57948;BME280;43754;56.992;24.292;2023-07-02T09:24:16;99537.44;;;23.05;70.85
57948;BME280;43754;56.992;24.292;2023-07-02T09:26:49;99538.72;;;22.89;73.06
57948;BME280;43754;56.992;24.292;2023-07-02T09:29:24;99534.78;;;22.71;73.26
57948;BME280;43754;56.992;24.292;2023-07-02T09:31:58;99537.25;;;22.68;73.47
57948;BME280;43754;56.992;24.292;2023-07-02T09:34:41;99537.50;;;22.76;73.54
57948;BME280;43754;56.992;24.292;2023-07-02T09:37:14;99530.53;;;22.89;72.72
57948;BME280;43754;56.992;24.292;2023-07-02T09:39:49;99529.41;;;23.14;72.63
57948;BME280;43754;56.992;24.292;2023-07-02T09:42:25;99540.25;;;23.24;71.63
57948;BME280;43754;56.992;24.292;2023-07-02T09:44:59;99539.19;;;23.20;72.06
57948;BME280;43754;56.992;24.292;2023-07-02T09:47:33;99526.34;;;23.20;72.42
57948;BME280;43754;56.992;24.292;2023-07-02T09:50:07;99530.47;;;23.18;72.15
57948;BME280;43754;56.992;24.292;2023-07-02T09:52:40;99528.97;;;23.07;71.57
57948;BME280;43754;56.992;24.292;2023-07-02T09:55:14;99525.19;;;23.03;71.70
57948;BME280;43754;56.992;24.292;2023-07-02T09:57:46;99514.69;;;23.10;72.09
57948;BME280;43754;56.992;24.292;2023-07-02T10:00:19;99531.59;;;23.17;71.38
57948;BME280;43754;56.992;24.292;2023-07-02T10:02:52;99522.50;;;22.98;71.42
57948;BME280;43754;56.992;24.292;2023-07-02T10:05:28;99507.56;;;22.90;71.45
57948;BME280;43754;56.992;24.292;2023-07-02T10:08:11;99516.56;;;23.14;70.75
57948;BME280;43754;56.992;24.292;2023-07-02T10:10:45;99502.56;;;23.21;70.96
57948;BME280;43754;56.992;24.292;2023-07-02T10:13:26;99503.97;;;23.37;69.47
57948;BME280;43754;56.992;24.292;2023-07-02T10:16:03;99498.19;;;23.38;70.99
57948;BME280;43754;56.992;24.292;2023-07-02T10:18:35;99496.91;;;23.55;69.80
57948;BME280;43754;56.992;24.292;2023-07-02T10:21:14;99496.78;;;23.46;70.49
57948;BME280;43754;56.992;24.292;2023-07-02T10:23:47;99495.97;;;23.22;69.67
57948;BME280;43754;56.992;24.292;2023-07-02T10:26:19;99488.34;;;23.19;71.73
57948;BME280;43754;56.992;24.292;2023-07-02T10:28:58;99503.66;;;23.20;70.78
57948;BME280;43754;56.992;24.292;2023-07-02T10:31:32;99503.78;;;23.10;70.00
57948;BME280;43754;56.992;24.292;2023-07-02T10:34:04;99499.38;;;22.90;71.72
57948;BME280;43754;56.992;24.292;2023-07-02T10:36:36;99497.00;;;22.83;72.13
57948;BME280;43754;56.992;24.292;2023-07-02T10:39:08;99492.81;;;22.91;72.38
57948;BME280;43754;56.992;24.292;2023-07-02T10:41:41;99500.13;;;22.96;72.62
57948;BME280;43754;56.992;24.292;2023-07-02T10:44:13;99486.75;;;22.94;72.61
57948;BME280;43754;56.992;24.292;2023-07-02T10:46:47;99489.91;;;22.82;72.59
57948;BME280;43754;56.992;24.292;2023-07-02T10:49:20;99483.50;;;22.63;72.66
57948;BME280;43754;56.992;24.292;2023-07-02T10:51:59;99484.81;;;22.42;73.55
57948;BME280;43754;56.992;24.292;2023-07-02T10:54:41;99493.56;;;22.39;74.16
57948;BME280;43754;56.992;24.292;2023-07-02T10:57:15;99475.53;;;22.43;73.79
57948;BME280;43754;56.992;24.292;2023-07-02T10:59:52;99482.84;;;22.47;73.47
57948;BME280;43754;56.992;24.292;2023-07-02T11:02:33;99477.16;;;22.44;74.54
57948;BME280;43754;56.992;24.292;2023-07-02T11:05:06;99468.78;;;22.35;74.72
57948;BME280;43754;56.992;24.292;2023-07-02T11:07:41;99485.53;;;22.24;75.21
57948;BME280;43754;56.992;24.292;2023-07-02T11:10:18;99472.16;;;21.93;77.59
57948;BME280;43754;56.992;24.292;2023-07-02T11:12:50;99470.94;;;21.71;78.65
57948;BME280;43754;56.992;24.292;2023-07-02T11:15:22;99476.44;;;21.61;79.77
57948;BME280;43754;56.992;24.292;2023-07-02T11:17:56;99478.72;;;21.48;80.27
57948;BME280;43754;56.992;24.292;2023-07-02T11:20:33;99481.72;;;21.42;80.71
57948;BME280;43754;56.992;24.292;2023-07-02T11:23:16;99471.59;;;21.52;80.91
57948;BME280;43754;56.992;24.292;2023-07-02T11:25:56;99463.66;;;21.56;80.75
57948;BME280;43754;56.992;24.292;2023-07-02T11:28:30;99467.22;;;21.51;80.40
57948;BME280;43754;56.992;24.292;2023-07-02T11:31:03;99461.31;;;21.39;80.22
57948;BME280;43754;56.992;24.292;2023-07-02T11:33:37;99459.91;;;21.42;80.82
57948;BME280;43754;56.992;24.292;2023-07-02T11:36:20;99456.19;;;21.33;81.66
57948;BME280;43754;56.992;24.292;2023-07-02T11:38:55;99452.94;;;21.26;82.82
57948;BME280;43754;56.992;24.292;2023-07-02T11:41:36;99456.06;;;21.53;82.66
57948;BME280;43754;56.992;24.292;2023-07-02T11:44:08;99450.44;;;21.73;81.67
57948;BME280;43754;56.992;24.292;2023-07-02T11:46:41;99456.38;;;21.80;81.24
57948;BME280;43754;56.992;24.292;2023-07-02T11:49:15;99448.09;;;21.62;82.44
57948;BME280;43754;56.992;24.292;2023-07-02T11:51:49;99451.09;;;21.60;83.65
57948;BME280;43754;56.992;24.292;2023-07-02T11:54:21;99452.78;;;21.51;85.11
57948;BME280;43754;56.992;24.292;2023-07-02T11:56:54;99449.66;;;21.29;87.79
57948;BME280;43754;56.992;24.292;2023-07-02T11:59:26;99452.19;;;21.00;91.34
57948;BME280;43754;56.992;24.292;2023-07-02T12:01:58;99461.00;;;20.77;93.38
57948;BME280;43754;56.992;24.292;2023-07-02T12:04:31;99462.44;;;20.54;97.24
57948;BME280;43754;56.992;24.292;2023-07-02T12:07:04;99467.91;;;20.29;100.00
57948;BME280;43754;56.992;24.292;2023-07-02T12:09:36;99468.19;;;19.97;100.00
57948;BME280;43754;56.992;24.292;2023-07-02T12:12:08;99468.44;;;19.75;100.00
57948;BME280;43754;56.992;24.292;2023-07-02T12:14:41;99467.34;;;19.61;100.00
57948;BME280;43754;56.992;24.292;2023-07-02T12:17:15;99463.28;;;19.53;100.00
57948;BME280;43754;56.992;24.292;2023-07-02T12:19:48;99470.88;;;19.56;100.00
57948;BME280;43754;56.992;24.292;2023-07-02T12:22:20;99475.47;;;19.46;100.00
57948;BME280;43754;56.992;24.292;2023-07-02T12:24:54;99474.25;;;19.16;100.00
57948;BME280;43754;56.992;24.292;2023-07-02T12:27:28;99458.47;;;19.08;100.00
57948;BME280;43754;56.992;24.292;2023-07-02T12:30:00;99460.09;;;19.04;100.00
57948;BME280;43754;56.992;24.292;2023-07-02T12:32:32;99455.50;;;19.10;100.00
57948;BME280;43754;56.992;24.292;2023-07-02T12:35:06;99455.25;;;19.16;100.00
57948;BME280;43754;56.992;24.292;2023-07-02T12:37:43;99458.53;;;19.18;100.00
57948;BME280;43754;56.992;24.292;2023-07-02T12:40:16;99472.88;;;19.09;100.00
57948;BME280;43754;56.992;24.292;2023-07-02T12:42:48;99464.47;;;19.10;100.00
57948;BME280;43754;56.992;24.292;2023-07-02T12:45:23;99471.81;;;19.15;100.00
57948;BME280;43754;56.992;24.292;2023-07-02T12:47:55;99468.81;;;19.16;100.00
57948;BME280;43754;56.992;24.292;2023-07-02T12:50:29;99457.72;;;19.23;100.00
57948;BME280;43754;56.992;24.292;2023-07-02T12:53:01;99462.38;;;19.27;100.00
57948;BME280;43754;56.992;24.292;2023-07-02T12:55:33;99468.31;;;19.24;100.00
57948;BME280;43754;56.992;24.292;2023-07-02T12:58:05;99468.03;;;19.21;100.00
57948;BME280;43754;56.992;24.292;2023-07-02T13:00:37;99472.09;;;19.18;100.00
57948;BME280;43754;56.992;24.292;2023-07-02T13:03:11;99463.41;;;19.21;100.00
57948;BME280;43754;56.992;24.292;2023-07-02T13:05:45;99469.66;;;19.22;100.00
57948;BME280;43754;56.992;24.292;2023-07-02T13:08:17;99467.22;;;19.20;100.00
57948;BME280;43754;56.992;24.292;2023-07-02T13:10:49;99466.66;;;19.13;100.00
57948;BME280;43754;56.992;24.292;2023-07-02T13:13:21;99467.72;;;19.07;100.00
57948;BME280;43754;56.992;24.292;2023-07-02T13:15:55;99467.19;;;19.10;100.00
57948;BME280;43754;56.992;24.292;2023-07-02T13:18:28;99472.63;;;19.10;100.00
57948;BME280;43754;56.992;24.292;2023-07-02T13:21:01;99473.16;;;19.12;100.00